Historique des stations

Station météo de Mainvilliers

Altitude de la station : 298 m







Données météorologiques pour le 04/12/2022
Date
Heure
Températures Humidité Point de rosée Vitesse
du vent
Direction Rafales Windchill Pression Pluviométrie
Cumul
Date
Heure
Températures Humidité Point de rosée Vitesse
du vent
Direction Rafales Windchill Pression Pluviométrie
Cumul
04/12/2022 16:493.2 °C93 %2.2 °C6 km/hNNE19 km/h1.7 1013 hPa-
04/12/2022 16:453.3 °C93 %2.2 °C16 km/hNE29 km/h-0.6 1013 hPa-
04/12/2022 16:343.3 °C93 %2.2 °C3 km/hNE11 km/h2.2 1013 hPa-
04/12/2022 16:303.3 °C93 %2.2 °C8 km/hNE29 km/h1.1 1013 hPa-
04/12/2022 16:193.3 °C93 %2.2 °C3 km/hENE14 km/h2.2 1013 hPa-
04/12/2022 16:153.2 °C93 %2.2 °C8 km/hENE29 km/h1.1 1013 hPa-
04/12/2022 16:043.3 °C93 %2.2 °C5 km/hNE14 km/h2.2 1013 hPa-
04/12/2022 16:003.3 °C93 %2.2 °C10 km/hNE29 km/h0.6 1013 hPa-
04/12/2022 15:493.2 °C93 %2.2 °C6 km/hNE18 km/h1.7 1012 hPa-
04/12/2022 15:453.2 °C93 %2.2 °C3 km/hNE29 km/h2.2 1012 hPa-
04/12/2022 15:343.3 °C93 %2.2 °C6 km/hNE19 km/h1.7 1012 hPa-
04/12/2022 15:303.2 °C93 %2.2 °C3 km/hNE29 km/h2.2 1012 hPa-
04/12/2022 15:193.2 °C93 %2.2 °C5 km/hNE18 km/h2.2 1012 hPa-
04/12/2022 15:153.2 °C93 %2.2 °C8 km/hNE29 km/h1.1 1012 hPa-
04/12/2022 15:043.2 °C93 %2.2 °C5 km/hNE19 km/h2.2 1012 hPa-
04/12/2022 15:003.2 °C93 %2.2 °C14 km/hNE29 km/h0.0 1012 hPa-
04/12/2022 14:493.2 °C93 %2.2 °C6 km/hNE13 km/h1.7 1012 hPa-
04/12/2022 14:453.2 °C93 %2.2 °C5 km/hNE29 km/h2.2 1012 hPa-
04/12/2022 14:343.1 °C93 %2.2 °C3 km/hNE18 km/h2.2 1012 hPa-
04/12/2022 14:303.1 °C93 %2.2 °C3 km/hNE29 km/h2.2 1012 hPa-
04/12/2022 14:203.1 °C93 %2.2 °C8 km/hNE19 km/h1.1 1012 hPa-
04/12/2022 14:153.1 °C93 %2.2 °C6 km/hNNE29 km/h1.7 1012 hPa-
04/12/2022 14:053.0 °C94 %2.2 °C8 km/hNE18 km/h0.6 1012 hPa-
04/12/2022 14:002.9 °C93 %2.2 °C8 km/hNE29 km/h0.6 1012 hPa-
04/12/2022 13:493.1 °C94 %2.2 °C8 km/hNNE18 km/h1.1 1012 hPa-
04/12/2022 13:453.1 °C94 %2.2 °C14 km/hNNE29 km/h0.0 1012 hPa-
04/12/2022 13:343.0 °C94 %2.2 °C6 km/hENE18 km/h1.1 1012 hPa-
04/12/2022 13:303.0 °C94 %2.2 °C14 km/hNE29 km/h-0.6 1012 hPa-
04/12/2022 13:202.9 °C94 %2.2 °C11 km/hNE18 km/h0.0 1012 hPa-
04/12/2022 13:152.9 °C94 %2.2 °C8 km/hENE29 km/h0.6 1012 hPa-
04/12/2022 13:052.8 °C94 %2.2 °C3 km/hNNE19 km/h1.7 1012 hPa-
04/12/2022 13:002.8 °C94 %2.2 °C2 km/hNE29 km/h2.2 1012 hPa-
04/12/2022 12:502.8 °C94 %2.2 °C8 km/hNE19 km/h0.6 1012 hPa-
04/12/2022 12:452.8 °C94 %2.2 °C5 km/hNE29 km/h1.7 1012 hPa-
04/12/2022 12:352.7 °C94 %1.7 °C3 km/hNE19 km/h1.7 1012 hPa-
04/12/2022 12:302.7 °C94 %1.7 °C8 km/hNE29 km/h0.6 1012 hPa-
04/12/2022 12:202.7 °C94 %1.7 °C3 km/hNE19 km/h1.7 1012 hPa-
04/12/2022 12:152.6 °C94 %1.7 °C14 km/hNE29 km/h-0.6 1012 hPa-
04/12/2022 12:052.5 °C94 %1.7 °C5 km/hNE19 km/h1.7 1012 hPa-
04/12/2022 12:002.5 °C94 %1.7 °C6 km/hNNE29 km/h1.1 1012 hPa-
04/12/2022 11:502.3 °C94 %1.7 °C8 km/hNE16 km/h0.0 1012 hPa-
04/12/2022 11:452.3 °C94 %1.7 °C3 km/hNE29 km/h1.1 1012 hPa-
04/12/2022 11:352.2 °C94 %1.1 °C16 km/hNE18 km/h-1.7 1012 hPa-
04/12/2022 11:302.1 °C94 %1.1 °C14 km/hNE29 km/h-1.1 1012 hPa-
04/12/2022 11:202.0 °C94 %1.1 °C2 km/hNE16 km/h1.7 1013 hPa-
04/12/2022 11:151.9 °C94 %1.1 °C11 km/hNE29 km/h-0.6 1012 hPa-
04/12/2022 11:051.9 °C94 %1.1 °C6 km/hNE18 km/h0.0 1012 hPa-
04/12/2022 11:001.9 °C94 %1.1 °C8 km/hNE29 km/h-1.1 1012 hPa-
04/12/2022 10:501.7 °C93 %0.6 °C3 km/hNNE18 km/h0.6 1012 hPa-
04/12/2022 10:451.7 °C93 %0.6 °C13 km/hNNE29 km/h-1.7 1012 hPa-
04/12/2022 10:351.7 °C93 %0.6 °C6 km/hNE16 km/h0.0 1012 hPa-
04/12/2022 10:301.7 °C93 %0.6 °C10 km/hN29 km/h-1.1 1012 hPa-
04/12/2022 10:201.8 °C93 %0.6 °C8 km/hNE19 km/h-1.1 1012 hPa-
04/12/2022 10:151.7 °C92 %0.6 °C6 km/hNE29 km/h0.0 1012 hPa-
04/12/2022 10:041.8 °C92 %0.6 °C11 km/hNNE23 km/h-1.1 1012 hPa-
04/12/2022 09:591.8 °C92 %0.6 °C14 km/hNE29 km/h-1.7 1012 hPa-
04/12/2022 09:491.8 °C92 %0.6 °C3 km/hNNE18 km/h0.6 1012 hPa-
04/12/2022 09:441.9 °C92 %0.6 °C8 km/hNE29 km/h-1.1 1012 hPa-
04/12/2022 09:341.9 °C91 %0.6 °C10 km/hNE19 km/h-0.6 1012 hPa-
04/12/2022 09:292.0 °C91 %0.6 °C14 km/hNE29 km/h-1.1 1012 hPa-
04/12/2022 09:192.0 °C91 %0.6 °C5 km/hNE18 km/h1.1 1012 hPa-
04/12/2022 09:142.0 °C91 %0.6 °C10 km/hNE29 km/h-0.6 1012 hPa-
04/12/2022 09:042.1 °C91 %0.6 °C6 km/hNE19 km/h0.6 1012 hPa-
04/12/2022 09:002.1 °C91 %0.6 °C14 km/hNE29 km/h-1.1 1012 hPa-
04/12/2022 08:492.1 °C91 %0.6 °C10 km/hNNE16 km/h-0.6 1012 hPa-
04/12/2022 08:442.1 °C91 %0.6 °C10 km/hNNE29 km/h-0.6 1012 hPa-
04/12/2022 08:341.9 °C90 %0.6 °C5 km/hNE21 km/h1.1 1012 hPa-
04/12/2022 08:292.0 °C90 %0.6 °C6 km/hNNE29 km/h0.6 1012 hPa-
04/12/2022 08:191.9 °C90 %0.6 °C14 km/hENE21 km/h-1.1 1012 hPa-
04/12/2022 08:142.0 °C90 %0.6 °C6 km/hENE29 km/h0.6 1012 hPa-
04/12/2022 08:042.0 °C90 %0.6 °C8 km/hNE18 km/h0.0 1012 hPa-
04/12/2022 07:591.9 °C90 %0.6 °C16 km/hNE29 km/h-1.7 1012 hPa-
04/12/2022 07:511.9 °C90 %0.6 °C5 km/hENE16 km/h1.1 1012 hPa-
04/12/2022 07:451.9 °C90 %0.6 °C3 km/hE29 km/h1.1 1012 hPa-
04/12/2022 07:361.9 °C90 %0.6 °C13 km/hNNE18 km/h-1.7 1012 hPa-
04/12/2022 07:301.9 °C90 %0.6 °C2 km/hENE29 km/h1.1 1012 hPa-
04/12/2022 07:201.8 °C90 %0.6 °C18 km/hENE27 km/h-2.8 1012 hPa-
04/12/2022 07:151.9 °C90 %0.6 °C14 km/hNNE29 km/h-1.7 1012 hPa-
04/12/2022 07:061.9 °C90 %0.6 °C11 km/hNE26 km/h-1.1 1012 hPa-
04/12/2022 07:001.9 °C90 %0.6 °C3 km/hNE29 km/h1.1 1012 hPa-
04/12/2022 06:501.9 °C90 %0.6 °C2 km/hE16 km/h1.7 1012 hPa-
04/12/2022 06:452.0 °C90 %0.6 °C6 km/hNE29 km/h0.6 1012 hPa-
04/12/2022 06:351.9 °C90 %0.6 °C3 km/hE16 km/h0.6 1012 hPa-
04/12/2022 06:301.9 °C90 %0.6 °C6 km/hNE29 km/h0.0 1012 hPa-
04/12/2022 06:211.8 °C90 %0.6 °C6 km/hENE13 km/h0.0 1012 hPa-
04/12/2022 06:161.8 °C90 %0.6 °C8 km/hENE29 km/h-1.1 1012 hPa-
04/12/2022 06:051.8 °C90 %0.6 °C8 km/hNE19 km/h-1.1 1012 hPa-
04/12/2022 06:011.8 °C90 %0.6 °C10 km/hNNE29 km/h-1.1 1012 hPa-
04/12/2022 05:501.7 °C90 %0.6 °C6 km/hNNE19 km/h0.0 1012 hPa-
04/12/2022 05:461.8 °C90 %0.6 °C8 km/hNNE29 km/h-1.1 1012 hPa-
04/12/2022 05:361.8 °C90 %0.6 °C8 km/hNE21 km/h-1.1 1012 hPa-
04/12/2022 05:311.8 °C90 %0.6 °C8 km/hNNE29 km/h-1.1 1012 hPa-
04/12/2022 05:201.7 °C90 %0.6 °C14 km/hNE19 km/h-1.7 1011 hPa-
04/12/2022 05:161.7 °C90 %0.6 °C8 km/hNE29 km/h-1.1 1011 hPa-
04/12/2022 05:061.8 °C90 %0.6 °C11 km/hNE18 km/h-1.1 1012 hPa-
04/12/2022 05:011.7 °C90 %0.6 °C11 km/hNE29 km/h-1.1 1012 hPa-
04/12/2022 04:501.7 °C90 %0.6 °C14 km/hN29 km/h-1.7 1012 hPa-
04/12/2022 04:461.7 °C90 %0.0 °C3 km/hENE26 km/h0.6 1012 hPa-
04/12/2022 04:351.7 °C90 %0.0 °C13 km/hNNE26 km/h-1.7 1012 hPa-
04/12/2022 04:311.7 °C90 %0.0 °C19 km/hNE26 km/h-2.8 1012 hPa-
04/12/2022 04:211.7 °C90 %0.0 °C6 km/hNE19 km/h0.0 1012 hPa-
04/12/2022 04:161.7 °C90 %0.0 °C11 km/hNE26 km/h-1.1 1012 hPa-
04/12/2022 04:051.7 °C90 %0.0 °C8 km/hNNE19 km/h-1.1 1012 hPa-
04/12/2022 04:001.7 °C90 %0.0 °C8 km/hENE26 km/h-1.1 1012 hPa-
04/12/2022 03:511.7 °C90 %0.0 °C14 km/hNNE21 km/h-1.7 1012 hPa-
04/12/2022 03:461.8 °C90 %0.6 °C14 km/hNNE26 km/h-1.7 1012 hPa-
04/12/2022 03:351.8 °C90 %0.6 °C23 km/hNE23 km/h-3.3 1012 hPa-
04/12/2022 03:311.8 °C90 %0.6 °C10 km/hNE26 km/h-1.1 1012 hPa-
04/12/2022 03:211.8 °C90 %0.6 °C10 km/hNE23 km/h-1.1 1012 hPa-
04/12/2022 03:161.8 °C90 %0.6 °C8 km/hENE26 km/h-1.1 1012 hPa-
04/12/2022 03:061.9 °C90 %0.6 °C18 km/hNE23 km/h-2.8 1012 hPa-
04/12/2022 03:011.9 °C90 %0.6 °C6 km/hENE24 km/h0.0 1013 hPa-
04/12/2022 02:511.8 °C90 %0.6 °C14 km/hNE26 km/h-1.7 1012 hPa-
04/12/2022 02:451.8 °C90 %0.6 °C8 km/hNE24 km/h-1.1 1012 hPa-
04/12/2022 02:361.8 °C90 %0.6 °C13 km/hNNE19 km/h-1.7 1012 hPa-
04/12/2022 02:311.8 °C90 %0.6 °C8 km/hNE24 km/h-1.1 1012 hPa-
04/12/2022 02:211.8 °C90 %0.6 °C6 km/hNE18 km/h0.0 1013 hPa-
04/12/2022 02:161.8 °C90 %0.6 °C2 km/hNE24 km/h1.1 1013 hPa-
04/12/2022 02:061.9 °C90 %0.6 °C8 km/hNE21 km/h-1.1 1013 hPa-
04/12/2022 02:011.9 °C90 %0.6 °C10 km/hNE24 km/h-0.6 1013 hPa-
04/12/2022 01:501.9 °C90 %0.6 °C3 km/hNE19 km/h1.1 1013 hPa-
04/12/2022 01:451.9 °C90 %0.6 °C8 km/hNE24 km/h0.0 1013 hPa-
04/12/2022 01:351.9 °C90 %0.6 °C3 km/hNE18 km/h0.6 1013 hPa-
04/12/2022 01:301.8 °C90 %0.6 °C6 km/hNE24 km/h0.0 1013 hPa-
04/12/2022 01:201.8 °C90 %0.6 °C6 km/hNE23 km/h0.0 1013 hPa-
04/12/2022 01:151.8 °C89 %0.0 °C14 km/hNE24 km/h-1.7 1013 hPa-
04/12/2022 01:051.9 °C89 %0.6 °C8 km/hNE21 km/h0.0 1013 hPa-
04/12/2022 01:002.0 °C90 %0.6 °C8 km/hNNE24 km/h0.0 1013 hPa-
04/12/2022 00:502.0 °C89 %0.6 °C11 km/hNNE16 km/h-0.6 1013 hPa-
04/12/2022 00:451.9 °C89 %0.6 °C6 km/hNNE24 km/h0.6 1013 hPa-
04/12/2022 00:352.0 °C90 %0.6 °C14 km/hNE18 km/h-1.1 1013 hPa-
04/12/2022 00:302.0 °C90 %0.6 °C2 km/hNE24 km/h1.7 1013 hPa-
04/12/2022 00:201.9 °C89 %0.6 °C18 km/hNE21 km/h-2.2 1013 hPa-
04/12/2022 00:151.9 °C89 %0.6 °C8 km/hNE24 km/h-1.1 1013 hPa-
04/12/2022 00:031.9 °C89 %0.6 °C8 km/hENE23 km/h0.0 1013 hPa-


Minima :

Température : 1.7 °C
Humidité : 89 %
Point de rosée : 0.0 °C
Vent moyen : 2 km/h
Windchill : -3.3
Pression atm. : 1011 hPa
Maxima :

Température : 3.3 °C
Humidité : 94 %
Point de rosée : 2.2 °C
Vent moyen : 23 km/h
Windchill : 2.2
Pression atm. : 1013 hPa
Rafales max : 29 km/h
Cumul de pluie sur 24H : 0 mm

Mainvilliers est une commune du département Eure-et-Loir (28).
La station météorologique du réseau de l'association la plus proche de Mainvilliers est celle de Chaudon
Site du propriétaire de la station : http://meteo28300.fr/



Icône Facebook Association Météo Centre Icône Twitter Association Météo Centre Icône Chaîne Youtube Association Météo Centre Icône contact Association Météo Centre Icône Insta Association Météo Centre